Time;durP1;ratioP1;P1;durP2;ratioP2;P2;SDS_P1;SDS_P2;PMS_P1;PMS_P2;Temp;Humidity;BMP_temperature;BMP_pressure;BME280_temperature;BME280_humidity;BME280_pressure;Samples;Min_cycle;Max_cycle;Signal;HPM_P1;HPM_P2
2023/08/05 03:31:03;;;;;;;7.15;3.38;;;;;;;;;;6293954;22;20194;-92
2023/08/05 03:34:11;;;;;;;6.05;3.42;;;;;;;;;;6275374;22;20220;-92
2023/08/05 03:37:17;;;;;;;4.78;3.20;;;;;;;;;;6276210;22;20185;-92
2023/08/05 03:40:23;;;;;;;6.95;3.83;;;;;;;;;;6292874;22;20161;-91
2023/08/05 03:43:28;;;;;;;7.80;4.03;;;;;;;;;;6276149;22;20226;-93
2023/08/05 03:46:34;;;;;;;5.38;3.78;;;;;;;;;;6275594;22;20174;-91
2023/08/05 03:49:40;;;;;;;5.70;3.45;;;;;;;;;;6275281;22;20276;-90
2023/08/05 03:52:45;;;;;;;6.30;3.92;;;;;;;;;;6275825;22;20162;-91
2023/08/05 03:55:50;;;;;;;5.82;3.80;;;;;;;;;;6274873;22;20496;-91
2023/08/05 03:58:59;;;;;;;5.70;3.58;;;;;;;;;;6293621;22;20177;-91
2023/08/05 04:02:08;;;;;;;6.07;3.53;;;;;;;;;;6274797;22;20169;-91
2023/08/05 04:05:13;;;;;;;7.90;3.70;;;;;;;;;;6273334;22;20171;-90
2023/08/05 04:08:19;;;;;;;8.30;4.15;;;;;;;;;;6272701;22;20166;-91
2023/08/05 04:15:45;;;;;;;7.70;5.03;;;;;;;;;;6293804;22;20498;-90
2023/08/05 04:18:52;;;;;;;7.90;4.72;;;;;;;;;;6274838;22;20201;-91
2023/08/05 04:21:59;;;;;;;7.75;4.95;;;;;;;;;;6275040;22;20264;-90
2023/08/05 04:25:04;;;;;;;6.20;4.95;;;;;;;;;;6277673;22;20174;-91
2023/08/05 04:28:11;;;;;;;10.15;4.78;;;;;;;;;;6278980;22;20224;-91
2023/08/05 04:31:16;;;;;;;9.20;4.70;;;;;;;;;;6278062;22;20165;-91
2023/08/05 04:34:25;;;;;;;6.70;4.35;;;;;;;;;;6277835;22;20206;-90
2023/08/05 04:37:31;;;;;;;8.95;4.80;;;;;;;;;;6278235;22;20174;-90
2023/08/05 04:40:36;;;;;;;7.47;4.30;;;;;;;;;;6278095;22;20249;-90
2023/08/05 04:43:42;;;;;;;6.78;4.70;;;;;;;;;;6278044;22;20170;-91
2023/08/05 04:46:47;;;;;;;5.95;3.95;;;;;;;;;;6277349;22;20170;-91
2023/08/05 04:49:54;;;;;;;7.57;3.90;;;;;;;;;;6277318;22;20162;-89
2023/08/05 04:53:00;;;;;;;7.63;3.75;;;;;;;;;;6278445;22;20199;-90
2023/08/05 04:56:05;;;;;;;6.10;3.30;;;;;;;;;;6277866;22;20181;-91
2023/08/05 04:59:10;;;;;;;6.35;3.50;;;;;;;;;;6277325;22;20193;-91
2023/08/05 05:02:15;;;;;;;4.80;3.53;;;;;;;;;;6277354;22;20162;-91
2023/08/05 05:05:22;;;;;;;6.70;3.15;;;;;;;;;;6279899;22;20149;-92
2023/08/05 05:08:30;;;;;;;5.38;2.90;;;;;;;;;;6279456;22;20169;-91
2023/08/05 05:12:06;;;;;;;11.35;3.22;;;;;;;;;;6278381;22;20149;-91
2023/08/05 05:15:12;;;;;;;7.25;3.05;;;;;;;;;;6260887;22;20165;-91
2023/08/05 05:18:18;;;;;;;5.55;3.15;;;;;;;;;;6278494;22;20195;-92
2023/08/05 05:21:25;;;;;;;5.10;3.17;;;;;;;;;;6296624;22;20224;-90
2023/08/05 05:24:31;;;;;;;6.00;3.20;;;;;;;;;;6278231;22;20221;-91
2023/08/05 05:27:36;;;;;;;4.22;2.90;;;;;;;;;;6277853;22;20165;-90
2023/08/05 05:30:41;;;;;;;5.93;3.20;;;;;;;;;;6278015;22;20202;-88
2023/08/05 05:33:47;;;;;;;9.10;2.95;;;;;;;;;;6275692;22;20174;-91
2023/08/05 05:37:14;;;;;;;5.80;3.30;;;;;;;;;;6279040;22;20185;-90
2023/08/05 05:40:21;;;;;;;7.75;3.03;;;;;;;;;;6276334;22;20583;-90
2023/08/05 05:43:27;;;;;;;6.15;3.17;;;;;;;;;;6277222;22;20169;-92
2023/08/05 05:46:32;;;;;;;8.10;3.28;;;;;;;;;;6275322;22;20162;-90
2023/08/05 05:49:38;;;;;;;6.50;3.58;;;;;;;;;;6293748;22;20153;-91
2023/08/05 05:52:43;;;;;;;9.35;3.25;;;;;;;;;;6278207;22;20169;-89
2023/08/05 05:55:53;;;;;;;6.43;3.00;;;;;;;;;;6276208;22;20153;-88
2023/08/05 05:58:59;;;;;;;5.15;3.38;;;;;;;;;;6276506;22;20189;-91
2023/08/05 06:02:04;;;;;;;7.55;3.22;;;;;;;;;;6276314;22;20199;-91
2023/08/05 06:05:10;;;;;;;4.93;2.88;;;;;;;;;;6278755;22;20161;-92
2023/08/05 06:08:23;;;;;;;8.18;3.47;;;;;;;;;;6276994;22;20166;-92
2023/08/05 06:11:35;;;;;;;7.13;3.30;;;;;;;;;;6278171;22;20169;-93
2023/08/05 06:14:41;;;;;;;7.97;3.38;;;;;;;;;;6276416;22;20158;-93
2023/08/05 06:17:47;;;;;;;6.47;3.30;;;;;;;;;;6275387;22;20149;-92
2023/08/05 06:20:53;;;;;;;6.00;3.38;;;;;;;;;;6277549;22;20166;-92
2023/08/05 06:23:58;;;;;;;6.78;3.38;;;;;;;;;;6275587;22;20170;-91
2023/08/05 06:27:05;;;;;;;5.88;3.45;;;;;;;;;;6276178;22;20452;-90
2023/08/05 06:30:11;;;;;;;8.20;3.50;;;;;;;;;;6276475;22;20254;-92
2023/08/05 06:33:17;;;;;;;7.32;4.18;;;;;;;;;;6277574;22;20189;-94
2023/08/05 06:36:22;;;;;;;6.28;3.70;;;;;;;;;;6275970;22;20224;-93
2023/08/05 06:39:27;;;;;;;5.65;3.72;;;;;;;;;;6275407;22;20261;-91
2023/08/05 06:42:34;;;;;;;5.00;3.67;;;;;;;;;;6294731;22;20169;-90
2023/08/05 06:45:39;;;;;;;5.75;4.28;;;;;;;;;;6276607;22;20166;-92
2023/08/05 06:48:45;;;;;;;7.88;4.63;;;;;;;;;;6277517;22;20161;-92
2023/08/05 06:51:50;;;;;;;5.97;4.28;;;;;;;;;;6277485;22;20489;-90
2023/08/05 06:54:57;;;;;;;7.78;4.40;;;;;;;;;;6277059;22;20166;-91
2023/08/05 06:58:05;;;;;;;6.93;4.47;;;;;;;;;;6295976;22;20172;-91
2023/08/05 07:07:49;;;;;;;5.90;4.22;;;;;;;;;;6278158;22;20165;-92
2023/08/05 07:11:11;;;;;;;9.60;4.40;;;;;;;;;;6276374;22;20173;-89
2023/08/05 07:14:18;;;;;;;8.27;4.80;;;;;;;;;;6278349;22;20149;-91
2023/08/05 07:17:25;;;;;;;8.32;4.30;;;;;;;;;;6277085;22;20166;-89
2023/08/05 07:20:30;;;;;;;7.70;4.75;;;;;;;;;;6295777;22;20243;-91
2023/08/05 07:23:35;;;;;;;6.95;4.63;;;;;;;;;;6277559;22;20189;-90
2023/08/05 07:26:45;;;;;;;6.75;4.90;;;;;;;;;;6278171;22;20170;-91
2023/08/05 07:29:53;;;;;;;8.32;4.47;;;;;;;;;;6278390;22;20229;-92
2023/08/05 07:32:59;;;;;;;7.63;4.40;;;;;;;;;;6277649;22;20157;-92
2023/08/05 07:36:16;;;;;;;7.50;4.50;;;;;;;;;;6276539;22;20165;-92
2023/08/05 07:39:23;;;;;;;7.35;4.10;;;;;;;;;;6275445;22;20265;-91
2023/08/05 07:42:30;;;;;;;5.97;3.72;;;;;;;;;;6276198;22;20166;-91
2023/08/05 07:45:37;;;;;;;8.48;4.88;;;;;;;;;;6276562;22;20178;-91
2023/08/05 07:48:45;;;;;;;7.85;4.57;;;;;;;;;;6277608;22;20605;-91
2023/08/05 07:51:52;;;;;;;7.50;4.30;;;;;;;;;;6275087;22;20288;-93
2023/08/05 07:55:00;;;;;;;5.97;4.13;;;;;;;;;;6277639;22;20203;-91
2023/08/05 07:58:07;;;;;;;8.80;4.20;;;;;;;;;;6277835;22;20166;-89
2023/08/05 08:31:01;;;;;;;8.27;4.60;;;;;;;;;;6237847;22;20210;-91
2023/08/05 08:37:27;;;;;;;9.77;4.90;;;;;;;;;;6282989;22;20185;-93
2023/08/05 08:40:32;;;;;;;6.97;4.28;;;;;;;;;;6276498;22;20204;-90
2023/08/05 08:43:38;;;;;;;5.85;4.63;;;;;;;;;;6274403;22;20185;-89
2023/08/05 08:46:49;;;;;;;7.82;4.47;;;;;;;;;;6279909;22;20178;-90
2023/08/05 08:49:56;;;;;;;7.78;4.85;;;;;;;;;;6280615;22;20236;-91
2023/08/05 08:53:06;;;;;;;6.97;5.10;;;;;;;;;;6265374;22;20165;-90
2023/08/05 08:56:17;;;;;;;6.75;5.28;;;;;;;;;;6281698;22;20216;-91
2023/08/05 08:59:25;;;;;;;6.22;4.90;;;;;;;;;;6279270;22;20190;-90
2023/08/05 09:02:34;;;;;;;6.95;4.97;;;;;;;;;;6280715;22;20169;-92
2023/08/05 09:05:44;;;;;;;5.70;4.70;;;;;;;;;;6281037;22;20662;-93
2023/08/05 09:08:58;;;;;;;9.02;5.03;;;;;;;;;;6281776;22;20197;-92
2023/08/05 09:12:08;;;;;;;9.20;4.85;;;;;;;;;;6280058;22;20209;-93
2023/08/05 09:15:22;;;;;;;8.40;5.10;;;;;;;;;;6280083;22;20181;-91
2023/08/05 09:18:32;;;;;;;7.95;4.93;;;;;;;;;;6281020;22;20215;-91
2023/08/05 09:21:38;;;;;;;6.80;5.18;;;;;;;;;;6278754;22;20205;-91
2023/08/05 09:24:44;;;;;;;6.95;5.20;;;;;;;;;;6277494;22;20215;-90
2023/08/05 09:27:52;;;;;;;7.85;5.20;;;;;;;;;;6278007;22;20185;-89
2023/08/05 09:31:12;;;;;;;11.45;5.25;;;;;;;;;;6278672;22;20182;-92
2023/08/05 09:38:24;;;;;;;9.43;5.50;;;;;;;;;;6279390;22;20204;-90
2023/08/05 09:41:35;;;;;;;7.75;4.95;;;;;;;;;;6277783;22;20173;-94
2023/08/05 09:44:41;;;;;;;6.80;5.22;;;;;;;;;;6278856;22;20169;-91
2023/08/05 09:47:49;;;;;;;7.53;5.43;;;;;;;;;;6277934;22;20189;-91
2023/08/05 09:50:55;;;;;;;7.95;5.68;;;;;;;;;;6275903;22;20174;-90
2023/08/05 09:54:05;;;;;;;7.32;5.47;;;;;;;;;;6278958;22;20166;-92
2023/08/05 09:57:19;;;;;;;7.97;5.55;;;;;;;;;;6278950;22;20173;-90
2023/08/05 10:00:25;;;;;;;7.18;5.22;;;;;;;;;;6275637;22;20196;-89
2023/08/05 11:38:51;;;;;;;13.32;7.30;;;;;;;;;;6277066;22;20188;-92
2023/08/05 11:45:58;;;;;;;9.57;6.95;;;;;;;;;;6275171;22;20154;-92
2023/08/05 11:49:07;;;;;;;10.32;6.70;;;;;;;;;;6275573;22;20199;-90
2023/08/05 11:52:16;;;;;;;11.93;6.45;;;;;;;;;;6276177;22;20189;-91
